sensor_id;sensor_type;location;lat;lon;timestamp;P1;durP1;ratioP1;P2;durP2;ratioP2
61356;SDS011;47227;46.752;23.576;2023-05-27T00:01:02;7.10;;;5.90;;
61356;SDS011;47227;46.752;23.576;2023-05-27T00:04:03;7.20;;;6.50;;
61356;SDS011;47227;46.752;23.576;2023-05-27T00:07:03;8.80;;;6.00;;
61356;SDS011;47227;46.752;23.576;2023-05-27T00:10:09;6.60;;;5.70;;
61356;SDS011;47227;46.752;23.576;2023-05-27T00:13:15;6.50;;;5.80;;
61356;SDS011;47227;46.752;23.576;2023-05-27T00:16:38;7.50;;;5.70;;
61356;SDS011;47227;46.752;23.576;2023-05-27T00:26:07;9.00;;;5.80;;
61356;SDS011;47227;46.752;23.576;2023-05-27T00:29:56;6.30;;;5.70;;
61356;SDS011;47227;46.752;23.576;2023-05-27T00:37:11;6.60;;;6.00;;
61356;SDS011;47227;46.752;23.576;2023-05-27T00:40:47;9.40;;;6.40;;
61356;SDS011;47227;46.752;23.576;2023-05-27T00:48:52;7.00;;;6.00;;
61356;SDS011;47227;46.752;23.576;2023-05-27T01:08:03;6.00;;;5.40;;
61356;SDS011;47227;46.752;23.576;2023-05-27T01:10:54;6.40;;;5.80;;
61356;SDS011;47227;46.752;23.576;2023-05-27T01:13:31;8.60;;;6.00;;
61356;SDS011;47227;46.752;23.576;2023-05-27T01:16:06;9.00;;;6.00;;
61356;SDS011;47227;46.752;23.576;2023-05-27T01:18:39;6.60;;;5.90;;
61356;SDS011;47227;46.752;23.576;2023-05-27T01:21:14;6.60;;;5.90;;
61356;SDS011;47227;46.752;23.576;2023-05-27T01:23:48;7.30;;;6.10;;
61356;SDS011;47227;46.752;23.576;2023-05-27T01:26:16;9.10;;;6.20;;
61356;SDS011;47227;46.752;23.576;2023-05-27T01:28:46;8.80;;;6.20;;
61356;SDS011;47227;46.752;23.576;2023-05-27T01:31:18;8.40;;;6.50;;
61356;SDS011;47227;46.752;23.576;2023-05-27T01:33:55;7.00;;;6.10;;
61356;SDS011;47227;46.752;23.576;2023-05-27T01:36:30;8.10;;;6.60;;
61356;SDS011;47227;46.752;23.576;2023-05-27T01:39:01;6.80;;;5.80;;
61356;SDS011;47227;46.752;23.576;2023-05-27T01:41:31;8.20;;;6.20;;
61356;SDS011;47227;46.752;23.576;2023-05-27T01:44:01;9.60;;;6.30;;
61356;SDS011;47227;46.752;23.576;2023-05-27T01:46:33;6.80;;;5.70;;
61356;SDS011;47227;46.752;23.576;2023-05-27T01:49:01;6.60;;;5.10;;
61356;SDS011;47227;46.752;23.576;2023-05-27T01:51:30;5.50;;;4.90;;
61356;SDS011;47227;46.752;23.576;2023-05-27T01:53:59;9.60;;;5.80;;
61356;SDS011;47227;46.752;23.576;2023-05-27T01:56:27;6.90;;;5.10;;
61356;SDS011;47227;46.752;23.576;2023-05-27T01:59:00;6.10;;;5.50;;
61356;SDS011;47227;46.752;23.576;2023-05-27T02:01:29;6.40;;;5.80;;
61356;SDS011;47227;46.752;23.576;2023-05-27T02:03:58;5.80;;;5.20;;
61356;SDS011;47227;46.752;23.576;2023-05-27T02:06:27;6.90;;;5.30;;
61356;SDS011;47227;46.752;23.576;2023-05-27T02:08:55;6.30;;;5.40;;
61356;SDS011;47227;46.752;23.576;2023-05-27T02:11:23;6.10;;;5.40;;
61356;SDS011;47227;46.752;23.576;2023-05-27T02:13:52;7.80;;;6.00;;
61356;SDS011;47227;46.752;23.576;2023-05-27T02:16:20;6.30;;;5.70;;
61356;SDS011;47227;46.752;23.576;2023-05-27T02:18:48;6.30;;;5.70;;
61356;SDS011;47227;46.752;23.576;2023-05-27T02:21:17;13.00;;;5.90;;
61356;SDS011;47227;46.752;23.576;2023-05-27T02:23:52;6.40;;;5.80;;
61356;SDS011;47227;46.752;23.576;2023-05-27T02:26:20;9.50;;;6.30;;
61356;SDS011;47227;46.752;23.576;2023-05-27T02:28:49;6.40;;;5.50;;
61356;SDS011;47227;46.752;23.576;2023-05-27T02:31:17;8.80;;;5.30;;
61356;SDS011;47227;46.752;23.576;2023-05-27T02:33:46;8.30;;;5.90;;
61356;SDS011;47227;46.752;23.576;2023-05-27T02:36:15;6.40;;;5.60;;
61356;SDS011;47227;46.752;23.576;2023-05-27T02:38:43;6.30;;;5.50;;
61356;SDS011;47227;46.752;23.576;2023-05-27T02:41:12;6.40;;;5.50;;
61356;SDS011;47227;46.752;23.576;2023-05-27T02:43:40;9.30;;;5.80;;
61356;SDS011;47227;46.752;23.576;2023-05-27T02:46:08;7.00;;;5.30;;
61356;SDS011;47227;46.752;23.576;2023-05-27T02:48:39;6.30;;;5.70;;
61356;SDS011;47227;46.752;23.576;2023-05-27T02:51:07;6.20;;;5.60;;
61356;SDS011;47227;46.752;23.576;2023-05-27T02:53:36;7.10;;;5.00;;
61356;SDS011;47227;46.752;23.576;2023-05-27T02:56:04;6.90;;;5.60;;
61356;SDS011;47227;46.752;23.576;2023-05-27T02:58:36;7.60;;;4.90;;
61356;SDS011;47227;46.752;23.576;2023-05-27T03:01:04;8.60;;;4.40;;
61356;SDS011;47227;46.752;23.576;2023-05-27T03:03:59;5.70;;;4.90;;
61356;SDS011;47227;46.752;23.576;2023-05-27T03:06:27;7.20;;;5.40;;
61356;SDS011;47227;46.752;23.576;2023-05-27T03:08:55;7.20;;;5.00;;
61356;SDS011;47227;46.752;23.576;2023-05-27T03:11:23;6.10;;;4.40;;
61356;SDS011;47227;46.752;23.576;2023-05-27T03:13:51;7.80;;;5.00;;
61356;SDS011;47227;46.752;23.576;2023-05-27T03:16:19;6.90;;;5.10;;
61356;SDS011;47227;46.752;23.576;2023-05-27T03:19:18;7.30;;;5.80;;
61356;SDS011;47227;46.752;23.576;2023-05-27T03:22:56;7.30;;;5.30;;
61356;SDS011;47227;46.752;23.576;2023-05-27T03:26:15;7.90;;;5.50;;
61356;SDS011;47227;46.752;23.576;2023-05-27T03:28:44;7.60;;;4.90;;
61356;SDS011;47227;46.752;23.576;2023-05-27T03:31:12;5.40;;;4.90;;
61356;SDS011;47227;46.752;23.576;2023-05-27T03:33:49;8.70;;;5.50;;
61356;SDS011;47227;46.752;23.576;2023-05-27T03:36:17;5.90;;;5.10;;
61356;SDS011;47227;46.752;23.576;2023-05-27T03:38:45;6.50;;;5.30;;
61356;SDS011;47227;46.752;23.576;2023-05-27T03:41:14;6.90;;;5.00;;
61356;SDS011;47227;46.752;23.576;2023-05-27T03:43:43;10.30;;;5.80;;
61356;SDS011;47227;46.752;23.576;2023-05-27T03:46:11;6.60;;;5.30;;
61356;SDS011;47227;46.752;23.576;2023-05-27T03:48:40;5.30;;;4.80;;
61356;SDS011;47227;46.752;23.576;2023-05-27T03:51:08;9.20;;;5.80;;
61356;SDS011;47227;46.752;23.576;2023-05-27T03:53:36;5.60;;;5.00;;
61356;SDS011;47227;46.752;23.576;2023-05-27T03:56:04;12.20;;;5.80;;
61356;SDS011;47227;46.752;23.576;2023-05-27T03:58:32;5.50;;;5.00;;
61356;SDS011;47227;46.752;23.576;2023-05-27T04:01:01;7.30;;;6.00;;
61356;SDS011;47227;46.752;23.576;2023-05-27T04:03:29;6.90;;;5.30;;
61356;SDS011;47227;46.752;23.576;2023-05-27T04:05:58;5.90;;;5.30;;
61356;SDS011;47227;46.752;23.576;2023-05-27T04:08:26;9.30;;;5.80;;
61356;SDS011;47227;46.752;23.576;2023-05-27T04:10:55;5.90;;;5.10;;
61356;SDS011;47227;46.752;23.576;2023-05-27T04:13:25;8.50;;;5.40;;
61356;SDS011;47227;46.752;23.576;2023-05-27T04:15:53;10.60;;;5.10;;
61356;SDS011;47227;46.752;23.576;2023-05-27T04:18:21;6.90;;;5.20;;
61356;SDS011;47227;46.752;23.576;2023-05-27T04:20:49;5.90;;;5.20;;
61356;SDS011;47227;46.752;23.576;2023-05-27T04:23:18;8.50;;;5.30;;
61356;SDS011;47227;46.752;23.576;2023-05-27T04:25:46;9.60;;;4.80;;
61356;SDS011;47227;46.752;23.576;2023-05-27T04:28:17;6.00;;;4.80;;
61356;SDS011;47227;46.752;23.576;2023-05-27T04:30:46;6.60;;;5.10;;
61356;SDS011;47227;46.752;23.576;2023-05-27T04:33:25;6.90;;;5.40;;
61356;SDS011;47227;46.752;23.576;2023-05-27T04:35:54;6.00;;;5.40;;
61356;SDS011;47227;46.752;23.576;2023-05-27T04:38:23;8.60;;;5.60;;
61356;SDS011;47227;46.752;23.576;2023-05-27T04:40:55;8.50;;;5.80;;
61356;SDS011;47227;46.752;23.576;2023-05-27T04:44:50;7.10;;;5.50;;
61356;SDS011;47227;46.752;23.576;2023-05-27T04:48:25;7.70;;;5.80;;
61356;SDS011;47227;46.752;23.576;2023-05-27T04:51:35;6.00;;;5.40;;
61356;SDS011;47227;46.752;23.576;2023-05-27T04:54:40;6.50;;;5.10;;
61356;SDS011;47227;46.752;23.576;2023-05-27T04:57:57;6.10;;;5.50;;
61356;SDS011;47227;46.752;23.576;2023-05-27T05:01:43;5.40;;;4.90;;
61356;SDS011;47227;46.752;23.576;2023-05-27T05:05:38;8.30;;;5.70;;
61356;SDS011;47227;46.752;23.576;2023-05-27T05:08:50;9.00;;;5.60;;
61356;SDS011;47227;46.752;23.576;2023-05-27T05:12:45;8.10;;;5.80;;
61356;SDS011;47227;46.752;23.576;2023-05-27T05:16:06;6.10;;;4.70;;
61356;SDS011;47227;46.752;23.576;2023-05-27T05:19:03;11.00;;;5.40;;
61356;SDS011;47227;46.752;23.576;2023-05-27T05:22:28;8.50;;;5.00;;
61356;SDS011;47227;46.752;23.576;2023-05-27T05:25:48;7.20;;;5.30;;
61356;SDS011;47227;46.752;23.576;2023-05-27T05:29:07;6.70;;;5.20;;
61356;SDS011;47227;46.752;23.576;2023-05-27T05:32:24;5.40;;;4.80;;
61356;SDS011;47227;46.752;23.576;2023-05-27T05:36:15;8.60;;;5.10;;
61356;SDS011;47227;46.752;23.576;2023-05-27T05:39:40;5.70;;;5.00;;
61356;SDS011;47227;46.752;23.576;2023-05-27T05:47:40;8.90;;;5.80;;
61356;SDS011;47227;46.752;23.576;2023-05-27T05:50:43;6.10;;;5.50;;
61356;SDS011;47227;46.752;23.576;2023-05-27T05:54:31;10.50;;;5.40;;
61356;SDS011;47227;46.752;23.576;2023-05-27T06:00:53;7.30;;;5.90;;
61356;SDS011;47227;46.752;23.576;2023-05-27T06:03:41;6.10;;;5.50;;
61356;SDS011;47227;46.752;23.576;2023-05-27T06:06:44;9.40;;;5.40;;
61356;SDS011;47227;46.752;23.576;2023-05-27T06:10:12;6.90;;;5.50;;
61356;SDS011;47227;46.752;23.576;2023-05-27T06:13:14;8.90;;;5.90;;
61356;SDS011;47227;46.752;23.576;2023-05-27T06:16:13;8.70;;;5.50;;
61356;SDS011;47227;46.752;23.576;2023-05-27T06:19:03;8.00;;;5.40;;
61356;SDS011;47227;46.752;23.576;2023-05-27T08:14:26;9.50;;;5.90;;
61356;SDS011;47227;46.752;23.576;2023-05-27T08:17:43;8.40;;;5.70;;
61356;SDS011;47227;46.752;23.576;2023-05-27T08:21:25;6.30;;;5.10;;
61356;SDS011;47227;46.752;23.576;2023-05-27T08:24:56;9.00;;;4.70;;
61356;SDS011;47227;46.752;23.576;2023-05-27T08:28:09;7.30;;;4.70;;
61356;SDS011;47227;46.752;23.576;2023-05-27T08:31:26;12.30;;;5.00;;
61356;SDS011;47227;46.752;23.576;2023-05-27T08:34:54;6.30;;;4.80;;
61356;SDS011;47227;46.752;23.576;2023-05-27T08:38:20;10.40;;;4.80;;
61356;SDS011;47227;46.752;23.576;2023-05-27T08:42:12;8.40;;;5.50;;
61356;SDS011;47227;46.752;23.576;2023-05-27T08:46:10;7.30;;;4.90;;
61356;SDS011;47227;46.752;23.576;2023-05-27T08:53:06;7.40;;;5.20;;
61356;SDS011;47227;46.752;23.576;2023-05-27T08:56:42;8.40;;;5.10;;
61356;SDS011;47227;46.752;23.576;2023-05-27T09:03:31;5.60;;;5.10;;
61356;SDS011;47227;46.752;23.576;2023-05-27T09:06:49;9.70;;;5.10;;
61356;SDS011;47227;46.752;23.576;2023-05-27T09:14:02;6.90;;;5.10;;
61356;SDS011;47227;46.752;23.576;2023-05-27T09:17:41;6.00;;;4.60;;
61356;SDS011;47227;46.752;23.576;2023-05-27T09:21:27;6.20;;;4.90;;
61356;SDS011;47227;46.752;23.576;2023-05-27T09:25:27;6.80;;;4.70;;
61356;SDS011;47227;46.752;23.576;2023-05-27T09:32:27;9.90;;;5.30;;
61356;SDS011;47227;46.752;23.576;2023-05-27T09:35:16;9.50;;;4.70;;
61356;SDS011;47227;46.752;23.576;2023-05-27T09:38:06;7.80;;;4.60;;
61356;SDS011;47227;46.752;23.576;2023-05-27T09:40:57;6.40;;;4.90;;
61356;SDS011;47227;46.752;23.576;2023-05-27T09:43:41;6.90;;;5.40;;
61356;SDS011;47227;46.752;23.576;2023-05-27T09:46:30;7.00;;;4.70;;
61356;SDS011;47227;46.752;23.576;2023-05-27T09:49:19;8.30;;;5.00;;
61356;SDS011;47227;46.752;23.576;2023-05-27T09:51:49;5.70;;;4.50;;
61356;SDS011;47227;46.752;23.576;2023-05-27T09:54:18;5.70;;;4.20;;
61356;SDS011;47227;46.752;23.576;2023-05-27T09:56:54;5.90;;;5.30;;
61356;SDS011;47227;46.752;23.576;2023-05-27T09:59:36;8.30;;;5.40;;
61356;SDS011;47227;46.752;23.576;2023-05-27T10:02:45;5.20;;;4.60;;
61356;SDS011;47227;46.752;23.576;2023-05-27T10:05:51;6.30;;;4.30;;
61356;SDS011;47227;46.752;23.576;2023-05-27T10:08:34;6.90;;;4.70;;
61356;SDS011;47227;46.752;23.576;2023-05-27T10:11:40;7.90;;;4.50;;
61356;SDS011;47227;46.752;23.576;2023-05-27T10:14:42;5.50;;;4.50;;
61356;SDS011;47227;46.752;23.576;2023-05-27T10:17:53;7.30;;;5.00;;
61356;SDS011;47227;46.752;23.576;2023-05-27T10:20:33;5.00;;;4.30;;
61356;SDS011;47227;46.752;23.576;2023-05-27T10:23:31;6.50;;;4.80;;
61356;SDS011;47227;46.752;23.576;2023-05-27T10:26:44;5.90;;;4.50;;
61356;SDS011;47227;46.752;23.576;2023-05-27T10:29:58;6.80;;;5.10;;
61356;SDS011;47227;46.752;23.576;2023-05-27T10:32:41;8.00;;;4.50;;
61356;SDS011;47227;46.752;23.576;2023-05-27T10:35:26;5.80;;;4.30;;
61356;SDS011;47227;46.752;23.576;2023-05-27T10:37:58;7.80;;;4.70;;
61356;SDS011;47227;46.752;23.576;2023-05-27T10:40:36;9.40;;;4.90;;
61356;SDS011;47227;46.752;23.576;2023-05-27T10:43:17;6.30;;;4.50;;
61356;SDS011;47227;46.752;23.576;2023-05-27T10:46:00;9.90;;;5.10;;
61356;SDS011;47227;46.752;23.576;2023-05-27T10:48:40;5.50;;;5.00;;
61356;SDS011;47227;46.752;23.576;2023-05-27T10:51:33;5.60;;;4.90;;
61356;SDS011;47227;46.752;23.576;2023-05-27T10:54:12;8.50;;;5.10;;
61356;SDS011;47227;46.752;23.576;2023-05-27T10:57:01;5.30;;;4.90;;
61356;SDS011;47227;46.752;23.576;2023-05-27T10:59:47;7.10;;;4.80;;
61356;SDS011;47227;46.752;23.576;2023-05-27T11:02:31;7.00;;;5.00;;
61356;SDS011;47227;46.752;23.576;2023-05-27T11:05:19;6.30;;;5.70;;
61356;SDS011;47227;46.752;23.576;2023-05-27T11:08:19;6.10;;;5.50;;
61356;SDS011;47227;46.752;23.576;2023-05-27T11:11:22;6.20;;;5.60;;
61356;SDS011;47227;46.752;23.576;2023-05-27T11:14:42;7.00;;;5.30;;
61356;SDS011;47227;46.752;23.576;2023-05-27T11:17:23;7.30;;;4.70;;
61356;SDS011;47227;46.752;23.576;2023-05-27T11:20:20;5.40;;;4.80;;
61356;SDS011;47227;46.752;23.576;2023-05-27T11:23:18;5.60;;;4.80;;
61356;SDS011;47227;46.752;23.576;2023-05-27T11:26:12;5.90;;;4.70;;
61356;SDS011;47227;46.752;23.576;2023-05-27T11:28:56;5.80;;;4.50;;
61356;SDS011;47227;46.752;23.576;2023-05-27T11:31:52;4.80;;;4.40;;
61356;SDS011;47227;46.752;23.576;2023-05-27T11:34:41;5.90;;;4.30;;
61356;SDS011;47227;46.752;23.576;2023-05-27T11:37:30;4.60;;;4.20;;
61356;SDS011;47227;46.752;23.576;2023-05-27T11:47:22;6.70;;;3.80;;
61356;SDS011;47227;46.752;23.576;2023-05-27T11:50:35;4.40;;;4.00;;
61356;SDS011;47227;46.752;23.576;2023-05-27T11:53:44;4.00;;;3.60;;
61356;SDS011;47227;46.752;23.576;2023-05-27T11:56:44;5.40;;;3.90;;
61356;SDS011;47227;46.752;23.576;2023-05-27T11:59:30;3.80;;;3.40;;
61356;SDS011;47227;46.752;23.576;2023-05-27T12:02:07;4.60;;;3.60;;
61356;SDS011;47227;46.752;23.576;2023-05-27T12:05:31;5.20;;;4.50;;
61356;SDS011;47227;46.752;23.576;2023-05-27T12:08:14;9.00;;;4.30;;
61356;SDS011;47227;46.752;23.576;2023-05-27T12:11:12;5.50;;;4.80;;
61356;SDS011;47227;46.752;23.576;2023-05-27T12:13:45;7.10;;;4.10;;
61356;SDS011;47227;46.752;23.576;2023-05-27T12:16:19;4.90;;;4.40;;
61356;SDS011;47227;46.752;23.576;2023-05-27T12:18:55;5.50;;;4.10;;
61356;SDS011;47227;46.752;23.576;2023-05-27T12:21:33;4.60;;;4.10;;
61356;SDS011;47227;46.752;23.576;2023-05-27T12:24:03;5.10;;;4.60;;
61356;SDS011;47227;46.752;23.576;2023-05-27T12:26:45;6.30;;;4.80;;
61356;SDS011;47227;46.752;23.576;2023-05-27T12:29:18;6.60;;;4.60;;
61356;SDS011;47227;46.752;23.576;2023-05-27T12:31:54;4.70;;;4.20;;
61356;SDS011;47227;46.752;23.576;2023-05-27T12:34:34;9.30;;;4.60;;
61356;SDS011;47227;46.752;23.576;2023-05-27T12:37:10;6.40;;;4.90;;
61356;SDS011;47227;46.752;23.576;2023-05-27T12:39:42;5.10;;;4.30;;
61356;SDS011;47227;46.752;23.576;2023-05-27T12:42:31;5.60;;;4.70;;
61356;SDS011;47227;46.752;23.576;2023-05-27T12:45:05;7.70;;;5.50;;
61356;SDS011;47227;46.752;23.576;2023-05-27T12:47:40;13.80;;;5.60;;
61356;SDS011;47227;46.752;23.576;2023-05-27T12:50:23;9.60;;;5.50;;
61356;SDS011;47227;46.752;23.576;2023-05-27T12:52:59;9.70;;;4.90;;
61356;SDS011;47227;46.752;23.576;2023-05-27T12:55:32;8.60;;;4.70;;
61356;SDS011;47227;46.752;23.576;2023-05-27T12:58:01;7.70;;;5.40;;
61356;SDS011;47227;46.752;23.576;2023-05-27T13:00:39;7.20;;;5.00;;
61356;SDS011;47227;46.752;23.576;2023-05-27T13:03:14;5.60;;;4.80;;
61356;SDS011;47227;46.752;23.576;2023-05-27T13:05:47;7.80;;;4.60;;
61356;SDS011;47227;46.752;23.576;2023-05-27T13:08:19;7.30;;;4.70;;
61356;SDS011;47227;46.752;23.576;2023-05-27T13:10:49;5.20;;;4.50;;
61356;SDS011;47227;46.752;23.576;2023-05-27T13:13:25;7.90;;;4.50;;
61356;SDS011;47227;46.752;23.576;2023-05-27T13:15:59;14.50;;;5.10;;
61356;SDS011;47227;46.752;23.576;2023-05-27T13:18:34;5.00;;;4.30;;
61356;SDS011;47227;46.752;23.576;2023-05-27T13:21:06;4.80;;;4.00;;
61356;SDS011;47227;46.752;23.576;2023-05-27T13:23:42;5.50;;;4.00;;
61356;SDS011;47227;46.752;23.576;2023-05-27T13:26:18;5.30;;;4.50;;
61356;SDS011;47227;46.752;23.576;2023-05-27T13:28:58;6.60;;;4.70;;
61356;SDS011;47227;46.752;23.576;2023-05-27T13:31:40;5.30;;;4.60;;
61356;SDS011;47227;46.752;23.576;2023-05-27T13:34:21;7.60;;;5.20;;
61356;SDS011;47227;46.752;23.576;2023-05-27T13:37:07;9.40;;;4.80;;
61356;SDS011;47227;46.752;23.576;2023-05-27T13:39:49;5.30;;;4.50;;
61356;SDS011;47227;46.752;23.576;2023-05-27T13:42:26;10.10;;;5.20;;
61356;SDS011;47227;46.752;23.576;2023-05-27T13:45:17;8.90;;;5.50;;
61356;SDS011;47227;46.752;23.576;2023-05-27T13:47:50;6.40;;;5.00;;
61356;SDS011;47227;46.752;23.576;2023-05-27T13:50:34;7.60;;;5.40;;
61356;SDS011;47227;46.752;23.576;2023-05-27T13:53:21;7.50;;;5.40;;
61356;SDS011;47227;46.752;23.576;2023-05-27T13:55:59;6.60;;;5.40;;
61356;SDS011;47227;46.752;23.576;2023-05-27T13:59:00;12.90;;;6.20;;
61356;SDS011;47227;46.752;23.576;2023-05-27T14:01:36;6.30;;;5.70;;
61356;SDS011;47227;46.752;23.576;2023-05-27T14:04:22;8.50;;;6.00;;
61356;SDS011;47227;46.752;23.576;2023-05-27T14:06:55;9.50;;;5.10;;
61356;SDS011;47227;46.752;23.576;2023-05-27T14:09:43;11.30;;;5.20;;
61356;SDS011;47227;46.752;23.576;2023-05-27T14:12:34;9.00;;;5.70;;
61356;SDS011;47227;46.752;23.576;2023-05-27T14:15:29;6.70;;;5.80;;
61356;SDS011;47227;46.752;23.576;2023-05-27T14:18:06;9.80;;;6.30;;
61356;SDS011;47227;46.752;23.576;2023-05-27T14:20:43;9.50;;;5.50;;
61356;SDS011;47227;46.752;23.576;2023-05-27T14:23:22;8.90;;;5.60;;
61356;SDS011;47227;46.752;23.576;2023-05-27T14:25:53;5.90;;;5.40;;
61356;SDS011;47227;46.752;23.576;2023-05-27T14:28:35;6.80;;;5.30;;
61356;SDS011;47227;46.752;23.576;2023-05-27T14:31:06;7.70;;;5.80;;
61356;SDS011;47227;46.752;23.576;2023-05-27T14:33:41;6.30;;;5.50;;
61356;SDS011;47227;46.752;23.576;2023-05-27T14:36:15;6.70;;;5.60;;
61356;SDS011;47227;46.752;23.576;2023-05-27T14:39:00;6.70;;;6.00;;
61356;SDS011;47227;46.752;23.576;2023-05-27T14:41:36;8.50;;;6.10;;
61356;SDS011;47227;46.752;23.576;2023-05-27T14:44:07;6.80;;;6.20;;
61356;SDS011;47227;46.752;23.576;2023-05-27T14:46:47;7.70;;;6.90;;
61356;SDS011;47227;46.752;23.576;2023-05-27T14:49:20;8.50;;;7.70;;
61356;SDS011;47227;46.752;23.576;2023-05-27T14:51:50;9.50;;;8.00;;
61356;SDS011;47227;46.752;23.576;2023-05-27T14:54:24;7.50;;;6.70;;
61356;SDS011;47227;46.752;23.576;2023-05-27T14:56:57;11.60;;;7.00;;
61356;SDS011;47227;46.752;23.576;2023-05-27T14:59:29;10.80;;;7.00;;
61356;SDS011;47227;46.752;23.576;2023-05-27T15:02:05;7.90;;;7.00;;
61356;SDS011;47227;46.752;23.576;2023-05-27T15:08:19;6.90;;;6.20;;
61356;SDS011;47227;46.752;23.576;2023-05-27T15:10:47;10.30;;;7.10;;
61356;SDS011;47227;46.752;23.576;2023-05-27T15:13:16;7.00;;;6.40;;
61356;SDS011;47227;46.752;23.576;2023-05-27T15:15:44;8.30;;;6.50;;
61356;SDS011;47227;46.752;23.576;2023-05-27T15:18:12;7.60;;;6.70;;
61356;SDS011;47227;46.752;23.576;2023-05-27T16:22:55;5.60;;;4.60;;
61356;SDS011;47227;46.752;23.576;2023-05-27T16:26:36;5.80;;;4.50;;
61356;SDS011;47227;46.752;23.576;2023-05-27T17:08:06;8.00;;;6.00;;
61356;SDS011;47227;46.752;23.576;2023-05-27T17:15:18;6.10;;;5.50;;
61356;SDS011;47227;46.752;23.576;2023-05-27T17:26:19;11.10;;;6.20;;
61356;SDS011;47227;46.752;23.576;2023-05-27T17:34:36;7.80;;;6.50;;
61356;SDS011;47227;46.752;23.576;2023-05-27T17:46:08;6.10;;;5.50;;
61356;SDS011;47227;46.752;23.576;2023-05-27T18:00:52;10.30;;;5.00;;
61356;SDS011;47227;46.752;23.576;2023-05-27T18:08:20;5.40;;;4.90;;
61356;SDS011;47227;46.752;23.576;2023-05-27T18:12:08;6.30;;;5.40;;
61356;SDS011;47227;46.752;23.576;2023-05-27T18:15:28;6.40;;;5.50;;
61356;SDS011;47227;46.752;23.576;2023-05-27T18:24:05;13.80;;;6.90;;
61356;SDS011;47227;46.752;23.576;2023-05-27T18:44:08;6.90;;;6.10;;
61356;SDS011;47227;46.752;23.576;2023-05-27T18:47:24;7.10;;;6.30;;
61356;SDS011;47227;46.752;23.576;2023-05-27T18:50:54;7.20;;;6.10;;
61356;SDS011;47227;46.752;23.576;2023-05-27T18:53:50;7.00;;;6.10;;
61356;SDS011;47227;46.752;23.576;2023-05-27T18:57:11;10.50;;;5.80;;
61356;SDS011;47227;46.752;23.576;2023-05-27T19:00:30;6.00;;;5.20;;
61356;SDS011;47227;46.752;23.576;2023-05-27T19:03:42;6.30;;;5.50;;
61356;SDS011;47227;46.752;23.576;2023-05-27T19:07:02;5.80;;;5.30;;
61356;SDS011;47227;46.752;23.576;2023-05-27T19:11:02;7.40;;;5.50;;
61356;SDS011;47227;46.752;23.576;2023-05-27T19:14:25;6.30;;;5.70;;
61356;SDS011;47227;46.752;23.576;2023-05-27T19:17:31;11.30;;;6.30;;
61356;SDS011;47227;46.752;23.576;2023-05-27T19:21:05;8.70;;;6.80;;
61356;SDS011;47227;46.752;23.576;2023-05-27T19:24:37;6.50;;;5.90;;
61356;SDS011;47227;46.752;23.576;2023-05-27T19:28:07;9.10;;;5.60;;
61356;SDS011;47227;46.752;23.576;2023-05-27T19:31:50;6.20;;;5.60;;
61356;SDS011;47227;46.752;23.576;2023-05-27T19:35:30;6.20;;;5.60;;
61356;SDS011;47227;46.752;23.576;2023-05-27T19:39:12;6.50;;;5.60;;
61356;SDS011;47227;46.752;23.576;2023-05-27T19:42:50;6.50;;;5.70;;
61356;SDS011;47227;46.752;23.576;2023-05-27T19:46:09;6.00;;;5.20;;
61356;SDS011;47227;46.752;23.576;2023-05-27T19:49:41;5.40;;;4.90;;
61356;SDS011;47227;46.752;23.576;2023-05-27T19:53:18;5.80;;;5.30;;
61356;SDS011;47227;46.752;23.576;2023-05-27T19:56:55;6.10;;;5.30;;
61356;SDS011;47227;46.752;23.576;2023-05-27T20:00:28;7.00;;;6.10;;
61356;SDS011;47227;46.752;23.576;2023-05-27T20:04:08;7.60;;;6.30;;
61356;SDS011;47227;46.752;23.576;2023-05-27T20:11:25;8.90;;;6.80;;
61356;SDS011;47227;46.752;23.576;2023-05-27T20:18:44;7.10;;;6.40;;
61356;SDS011;47227;46.752;23.576;2023-05-27T20:26:26;6.10;;;5.60;;
61356;SDS011;47227;46.752;23.576;2023-05-27T20:30:03;6.40;;;5.80;;
61356;SDS011;47227;46.752;23.576;2023-05-27T20:32:32;9.20;;;4.70;;
61356;SDS011;47227;46.752;23.576;2023-05-27T20:35:00;8.60;;;5.50;;
61356;SDS011;47227;46.752;23.576;2023-05-27T20:37:28;7.20;;;5.80;;
61356;SDS011;47227;46.752;23.576;2023-05-27T20:40:01;5.90;;;4.70;;
61356;SDS011;47227;46.752;23.576;2023-05-27T21:07:11;9.40;;;5.80;;
61356;SDS011;47227;46.752;23.576;2023-05-27T21:10:30;7.50;;;5.50;;
61356;SDS011;47227;46.752;23.576;2023-05-27T21:13:06;7.10;;;6.10;;
61356;SDS011;47227;46.752;23.576;2023-05-27T21:15:45;6.80;;;6.10;;
61356;SDS011;47227;46.752;23.576;2023-05-27T21:18:20;6.50;;;5.80;;
61356;SDS011;47227;46.752;23.576;2023-05-27T21:20:51;6.90;;;6.00;;
61356;SDS011;47227;46.752;23.576;2023-05-27T21:23:37;7.20;;;6.50;;
61356;SDS011;47227;46.752;23.576;2023-05-27T21:26:19;7.80;;;5.90;;
61356;SDS011;47227;46.752;23.576;2023-05-27T21:29:33;9.10;;;5.40;;
61356;SDS011;47227;46.752;23.576;2023-05-27T21:32:07;10.90;;;5.40;;
61356;SDS011;47227;46.752;23.576;2023-05-27T21:34:45;6.30;;;4.90;;
61356;SDS011;47227;46.752;23.576;2023-05-27T21:37:19;8.30;;;6.00;;
61356;SDS011;47227;46.752;23.576;2023-05-27T21:39:58;12.60;;;8.10;;
61356;SDS011;47227;46.752;23.576;2023-05-27T21:42:48;5.60;;;5.10;;
61356;SDS011;47227;46.752;23.576;2023-05-27T21:45:27;6.80;;;5.50;;
61356;SDS011;47227;46.752;23.576;2023-05-27T21:48:07;6.00;;;5.30;;
61356;SDS011;47227;46.752;23.576;2023-05-27T21:50:43;8.40;;;5.90;;
61356;SDS011;47227;46.752;23.576;2023-05-27T21:53:52;9.20;;;5.70;;
61356;SDS011;47227;46.752;23.576;2023-05-27T21:56:29;5.90;;;5.40;;
61356;SDS011;47227;46.752;23.576;2023-05-27T21:59:40;8.50;;;5.90;;
61356;SDS011;47227;46.752;23.576;2023-05-27T22:02:55;7.40;;;6.70;;
61356;SDS011;47227;46.752;23.576;2023-05-27T22:06:21;7.30;;;6.60;;
61356;SDS011;47227;46.752;23.576;2023-05-27T22:09:52;7.50;;;6.80;;
61356;SDS011;47227;46.752;23.576;2023-05-27T22:14:06;8.50;;;7.40;;
61356;SDS011;47227;46.752;23.576;2023-05-27T22:17:17;7.90;;;7.10;;
61356;SDS011;47227;46.752;23.576;2023-05-27T22:19:52;7.00;;;6.30;;
61356;SDS011;47227;46.752;23.576;2023-05-27T22:22:53;6.50;;;5.90;;
61356;SDS011;47227;46.752;23.576;2023-05-27T22:25:31;8.60;;;5.40;;
61356;SDS011;47227;46.752;23.576;2023-05-27T22:28:37;8.60;;;6.30;;
61356;SDS011;47227;46.752;23.576;2023-05-27T22:31:08;7.30;;;6.20;;
61356;SDS011;47227;46.752;23.576;2023-05-27T22:33:46;6.40;;;5.70;;
61356;SDS011;47227;46.752;23.576;2023-05-27T22:36:44;5.70;;;5.20;;
61356;SDS011;47227;46.752;23.576;2023-05-27T22:39:28;6.40;;;5.30;;
61356;SDS011;47227;46.752;23.576;2023-05-27T22:42:01;7.50;;;5.70;;
61356;SDS011;47227;46.752;23.576;2023-05-27T22:44:40;6.30;;;5.60;;
61356;SDS011;47227;46.752;23.576;2023-05-27T22:47:32;7.10;;;5.60;;
61356;SDS011;47227;46.752;23.576;2023-05-27T22:50:19;8.10;;;5.30;;
61356;SDS011;47227;46.752;23.576;2023-05-27T22:53:07;7.20;;;5.50;;
61356;SDS011;47227;46.752;23.576;2023-05-27T22:55:44;7.80;;;5.20;;
61356;SDS011;47227;46.752;23.576;2023-05-27T22:58:34;7.80;;;5.90;;
61356;SDS011;47227;46.752;23.576;2023-05-27T23:01:07;7.30;;;6.20;;
61356;SDS011;47227;46.752;23.576;2023-05-27T23:03:39;6.10;;;5.50;;
61356;SDS011;47227;46.752;23.576;2023-05-27T23:06:09;8.20;;;5.60;;
61356;SDS011;47227;46.752;23.576;2023-05-27T23:08:45;6.90;;;6.30;;
61356;SDS011;47227;46.752;23.576;2023-05-27T23:11:27;8.20;;;6.40;;
61356;SDS011;47227;46.752;23.576;2023-05-27T23:14:03;8.50;;;6.10;;
61356;SDS011;47227;46.752;23.576;2023-05-27T23:17:05;10.70;;;6.70;;